sensor_id;sensor_type;location;lat;lon;timestamp;pressure;altitude;pressure_sealevel;temperature;humidity
5413;BME280;2729;50.056;8.678;2022-07-06T00:02:02;100912.59;;;19.87;72.96
5413;BME280;2729;50.056;8.678;2022-07-06T00:04:28;100915.72;;;19.78;73.85
5413;BME280;2729;50.056;8.678;2022-07-06T00:06:54;100910.81;;;19.87;72.04
5413;BME280;2729;50.056;8.678;2022-07-06T00:09:20;100913.09;;;19.78;74.06
5413;BME280;2729;50.056;8.678;2022-07-06T00:11:46;100921.28;;;19.73;75.49
5413;BME280;2729;50.056;8.678;2022-07-06T00:14:12;100921.06;;;19.61;75.92
5413;BME280;2729;50.056;8.678;2022-07-06T00:16:38;100919.34;;;19.59;76.46
5413;BME280;2729;50.056;8.678;2022-07-06T00:19:04;100920.19;;;19.43;78.66
5413;BME280;2729;50.056;8.678;2022-07-06T00:21:30;100926.34;;;19.26;81.94
5413;BME280;2729;50.056;8.678;2022-07-06T00:23:56;100928.28;;;19.40;80.32
5413;BME280;2729;50.056;8.678;2022-07-06T00:26:22;100920.50;;;19.19;81.80
5413;BME280;2729;50.056;8.678;2022-07-06T00:28:48;100923.81;;;19.06;86.38
5413;BME280;2729;50.056;8.678;2022-07-06T00:31:14;100922.75;;;19.27;83.56
5413;BME280;2729;50.056;8.678;2022-07-06T00:33:40;100921.34;;;19.20;86.04
5413;BME280;2729;50.056;8.678;2022-07-06T00:36:06;100928.03;;;19.10;87.00
5413;BME280;2729;50.056;8.678;2022-07-06T00:38:33;100921.97;;;19.08;83.97
5413;BME280;2729;50.056;8.678;2022-07-06T00:40:59;100915.50;;;19.13;85.02
5413;BME280;2729;50.056;8.678;2022-07-06T00:43:25;100914.25;;;19.03;85.68
5413;BME280;2729;50.056;8.678;2022-07-06T00:45:51;100917.28;;;18.95;86.70
5413;BME280;2729;50.056;8.678;2022-07-06T00:48:17;100917.91;;;19.01;83.71
5413;BME280;2729;50.056;8.678;2022-07-06T00:50:43;100915.25;;;19.01;86.35
5413;BME280;2729;50.056;8.678;2022-07-06T00:53:09;100918.53;;;19.06;83.79
5413;BME280;2729;50.056;8.678;2022-07-06T00:55:38;100915.25;;;19.01;88.18
5413;BME280;2729;50.056;8.678;2022-07-06T00:58:08;100916.81;;;19.05;90.06
5413;BME280;2729;50.056;8.678;2022-07-06T01:00:35;100917.53;;;19.08;92.65
5413;BME280;2729;50.056;8.678;2022-07-06T01:03:01;100919.44;;;18.87;85.57
5413;BME280;2729;50.056;8.678;2022-07-06T01:05:27;100916.56;;;18.92;86.19
5413;BME280;2729;50.056;8.678;2022-07-06T01:07:54;100918.75;;;19.01;88.08
5413;BME280;2729;50.056;8.678;2022-07-06T01:10:21;100918.22;;;18.94;88.14
5413;BME280;2729;50.056;8.678;2022-07-06T01:12:48;100914.19;;;19.05;88.32
5413;BME280;2729;50.056;8.678;2022-07-06T01:15:20;100917.56;;;18.89;87.80
5413;BME280;2729;50.056;8.678;2022-07-06T01:17:47;100915.00;;;18.88;87.85
5413;BME280;2729;50.056;8.678;2022-07-06T01:20:15;100912.28;;;18.89;89.17
5413;BME280;2729;50.056;8.678;2022-07-06T01:22:42;100904.56;;;18.85;91.73
5413;BME280;2729;50.056;8.678;2022-07-06T01:25:09;100906.44;;;18.83;93.70
5413;BME280;2729;50.056;8.678;2022-07-06T01:27:37;100913.94;;;18.92;93.97
5413;BME280;2729;50.056;8.678;2022-07-06T01:30:09;100916.41;;;18.95;96.03
5413;BME280;2729;50.056;8.678;2022-07-06T01:32:36;100916.16;;;18.82;92.66
5413;BME280;2729;50.056;8.678;2022-07-06T01:35:03;100920.97;;;18.74;91.16
5413;BME280;2729;50.056;8.678;2022-07-06T01:37:30;100924.69;;;18.70;98.19
5413;BME280;2729;50.056;8.678;2022-07-06T01:40:04;100918.75;;;18.65;94.45
5413;BME280;2729;50.056;8.678;2022-07-06T01:42:31;100919.03;;;18.59;93.15
5413;BME280;2729;50.056;8.678;2022-07-06T01:44:57;100915.44;;;18.60;95.81
5413;BME280;2729;50.056;8.678;2022-07-06T01:47:23;100915.81;;;18.52;95.86
5413;BME280;2729;50.056;8.678;2022-07-06T01:49:50;100911.31;;;18.36;95.43
5413;BME280;2729;50.056;8.678;2022-07-06T01:52:17;100914.97;;;18.33;97.97
5413;BME280;2729;50.056;8.678;2022-07-06T01:54:43;100915.72;;;18.16;99.23
5413;BME280;2729;50.056;8.678;2022-07-06T01:57:09;100913.44;;;18.09;100.00
5413;BME280;2729;50.056;8.678;2022-07-06T01:59:35;100913.00;;;18.18;100.00
5413;BME280;2729;50.056;8.678;2022-07-06T02:02:01;100917.34;;;18.00;100.00
5413;BME280;2729;50.056;8.678;2022-07-06T02:04:27;100917.84;;;17.89;100.00
5413;BME280;2729;50.056;8.678;2022-07-06T02:06:53;100919.63;;;17.89;100.00
5413;BME280;2729;50.056;8.678;2022-07-06T02:09:19;100920.97;;;17.97;100.00
5413;BME280;2729;50.056;8.678;2022-07-06T02:11:45;100916.31;;;17.84;100.00
5413;BME280;2729;50.056;8.678;2022-07-06T02:14:13;100924.38;;;17.60;100.00
5413;BME280;2729;50.056;8.678;2022-07-06T02:16:40;100921.13;;;17.54;100.00
5413;BME280;2729;50.056;8.678;2022-07-06T02:19:06;100924.56;;;17.56;100.00
5413;BME280;2729;50.056;8.678;2022-07-06T02:21:32;100922.06;;;17.53;100.00
5413;BME280;2729;50.056;8.678;2022-07-06T02:23:58;100921.66;;;17.62;100.00
5413;BME280;2729;50.056;8.678;2022-07-06T02:26:24;100922.06;;;17.53;100.00
5413;BME280;2729;50.056;8.678;2022-07-06T02:28:50;100927.41;;;17.51;100.00
5413;BME280;2729;50.056;8.678;2022-07-06T02:31:16;100916.13;;;17.48;100.00
5413;BME280;2729;50.056;8.678;2022-07-06T02:33:45;100927.41;;;17.51;100.00
5413;BME280;2729;50.056;8.678;2022-07-06T02:36:12;100931.69;;;17.54;100.00
5413;BME280;2729;50.056;8.678;2022-07-06T02:38:38;100932.69;;;17.51;100.00
5413;BME280;2729;50.056;8.678;2022-07-06T02:41:04;100929.97;;;17.53;100.00
5413;BME280;2729;50.056;8.678;2022-07-06T02:43:30;100929.13;;;17.52;100.00
5413;BME280;2729;50.056;8.678;2022-07-06T02:45:56;100923.84;;;17.32;100.00
5413;BME280;2729;50.056;8.678;2022-07-06T02:48:22;100925.81;;;17.27;100.00
5413;BME280;2729;50.056;8.678;2022-07-06T02:50:50;100926.81;;;17.02;100.00
5413;BME280;2729;50.056;8.678;2022-07-06T02:53:17;100925.97;;;17.02;100.00
5413;BME280;2729;50.056;8.678;2022-07-06T02:55:45;100929.53;;;17.01;100.00
5413;BME280;2729;50.056;8.678;2022-07-06T02:58:11;100930.44;;;17.00;100.00
5413;BME280;2729;50.056;8.678;2022-07-06T03:00:37;100933.09;;;17.00;100.00
5413;BME280;2729;50.056;8.678;2022-07-06T03:03:03;100933.88;;;17.02;100.00
5413;BME280;2729;50.056;8.678;2022-07-06T03:05:30;100934.06;;;16.76;100.00
5413;BME280;2729;50.056;8.678;2022-07-06T03:07:56;100944.25;;;16.85;100.00
5413;BME280;2729;50.056;8.678;2022-07-06T03:10:22;100949.94;;;16.74;100.00
5413;BME280;2729;50.056;8.678;2022-07-06T03:12:48;100944.75;;;16.73;100.00
5413;BME280;2729;50.056;8.678;2022-07-06T03:15:14;100944.00;;;16.69;100.00
5413;BME280;2729;50.056;8.678;2022-07-06T03:17:43;100946.28;;;16.78;100.00
5413;BME280;2729;50.056;8.678;2022-07-06T03:20:10;100942.16;;;16.71;100.00
5413;BME280;2729;50.056;8.678;2022-07-06T03:22:36;100948.25;;;16.73;100.00
5413;BME280;2729;50.056;8.678;2022-07-06T03:25:04;100954.50;;;16.47;100.00
5413;BME280;2729;50.056;8.678;2022-07-06T03:27:30;100952.25;;;16.36;100.00
5413;BME280;2729;50.056;8.678;2022-07-06T03:29:56;100954.22;;;16.31;100.00
5413;BME280;2729;50.056;8.678;2022-07-06T03:32:22;100958.34;;;16.38;100.00
5413;BME280;2729;50.056;8.678;2022-07-06T03:34:48;100961.88;;;16.37;100.00
5413;BME280;2729;50.056;8.678;2022-07-06T03:37:14;100961.59;;;16.22;100.00
5413;BME280;2729;50.056;8.678;2022-07-06T03:39:42;100956.03;;;16.06;100.00
5413;BME280;2729;50.056;8.678;2022-07-06T03:42:08;100963.66;;;16.14;100.00
5413;BME280;2729;50.056;8.678;2022-07-06T03:44:36;100971.72;;;16.09;100.00
5413;BME280;2729;50.056;8.678;2022-07-06T03:47:03;100966.47;;;16.09;100.00
5413;BME280;2729;50.056;8.678;2022-07-06T03:49:29;100964.63;;;16.11;100.00
5413;BME280;2729;50.056;8.678;2022-07-06T03:51:58;100968.53;;;16.24;100.00
5413;BME280;2729;50.056;8.678;2022-07-06T03:54:24;100964.28;;;16.20;100.00
5413;BME280;2729;50.056;8.678;2022-07-06T03:56:56;100971.50;;;16.15;100.00
5413;BME280;2729;50.056;8.678;2022-07-06T03:59:22;100971.63;;;16.12;100.00
5413;BME280;2729;50.056;8.678;2022-07-06T04:01:48;100974.41;;;16.07;100.00
5413;BME280;2729;50.056;8.678;2022-07-06T04:04:16;100983.22;;;16.06;100.00
5413;BME280;2729;50.056;8.678;2022-07-06T04:06:44;100987.41;;;16.12;100.00
5413;BME280;2729;50.056;8.678;2022-07-06T04:09:10;100974.72;;;16.23;100.00
5413;BME280;2729;50.056;8.678;2022-07-06T04:11:36;100981.97;;;16.17;100.00
5413;BME280;2729;50.056;8.678;2022-07-06T04:14:03;100983.06;;;16.34;100.00
5413;BME280;2729;50.056;8.678;2022-07-06T04:16:29;100986.63;;;16.33;100.00
5413;BME280;2729;50.056;8.678;2022-07-06T04:18:56;100981.00;;;16.43;100.00
5413;BME280;2729;50.056;8.678;2022-07-06T04:21:22;100990.97;;;16.34;100.00
5413;BME280;2729;50.056;8.678;2022-07-06T04:23:48;100993.56;;;16.36;100.00
5413;BME280;2729;50.056;8.678;2022-07-06T04:26:15;100997.16;;;16.33;100.00
5413;BME280;2729;50.056;8.678;2022-07-06T04:28:41;101001.91;;;16.47;100.00
5413;BME280;2729;50.056;8.678;2022-07-06T04:31:08;101000.59;;;16.59;100.00
5413;BME280;2729;50.056;8.678;2022-07-06T04:33:34;100993.91;;;16.50;100.00
5413;BME280;2729;50.056;8.678;2022-07-06T04:36:00;100998.50;;;16.68;100.00
5413;BME280;2729;50.056;8.678;2022-07-06T04:38:35;101001.75;;;16.75;100.00
5413;BME280;2729;50.056;8.678;2022-07-06T04:41:04;101006.00;;;16.79;100.00
5413;BME280;2729;50.056;8.678;2022-07-06T04:43:31;100996.81;;;16.89;100.00
5413;BME280;2729;50.056;8.678;2022-07-06T04:45:57;100996.72;;;16.69;100.00
5413;BME280;2729;50.056;8.678;2022-07-06T04:48:23;101005.94;;;17.02;100.00
5413;BME280;2729;50.056;8.678;2022-07-06T04:50:49;101005.59;;;17.12;100.00
5413;BME280;2729;50.056;8.678;2022-07-06T04:53:20;101011.72;;;17.12;100.00
5413;BME280;2729;50.056;8.678;2022-07-06T04:55:47;101004.53;;;17.16;100.00
5413;BME280;2729;50.056;8.678;2022-07-06T04:58:13;101011.84;;;17.09;100.00
5413;BME280;2729;50.056;8.678;2022-07-06T05:00:40;101004.47;;;17.17;100.00
5413;BME280;2729;50.056;8.678;2022-07-06T05:03:06;101009.69;;;17.19;100.00
5413;BME280;2729;50.056;8.678;2022-07-06T05:05:33;101005.22;;;17.21;100.00
5413;BME280;2729;50.056;8.678;2022-07-06T05:07:59;101011.78;;;17.11;100.00
5413;BME280;2729;50.056;8.678;2022-07-06T05:10:26;101009.69;;;17.19;100.00
5413;BME280;2729;50.056;8.678;2022-07-06T05:12:55;101019.69;;;17.32;100.00
5413;BME280;2729;50.056;8.678;2022-07-06T05:15:21;101013.47;;;17.55;100.00
5413;BME280;2729;50.056;8.678;2022-07-06T05:17:47;101020.75;;;17.71;100.00
5413;BME280;2729;50.056;8.678;2022-07-06T05:20:14;101028.13;;;17.62;100.00
5413;BME280;2729;50.056;8.678;2022-07-06T05:22:43;101029.28;;;17.55;100.00
5413;BME280;2729;50.056;8.678;2022-07-06T05:25:09;101027.88;;;17.68;100.00
5413;BME280;2729;50.056;8.678;2022-07-06T05:27:35;101032.38;;;17.66;100.00
5413;BME280;2729;50.056;8.678;2022-07-06T05:30:02;101032.47;;;17.85;100.00
5413;BME280;2729;50.056;8.678;2022-07-06T05:32:29;101028.22;;;18.02;100.00
5413;BME280;2729;50.056;8.678;2022-07-06T05:34:55;101033.31;;;17.86;100.00
5413;BME280;2729;50.056;8.678;2022-07-06T05:37:21;101029.56;;;17.91;100.00
5413;BME280;2729;50.056;8.678;2022-07-06T05:39:47;101030.88;;;17.81;100.00
5413;BME280;2729;50.056;8.678;2022-07-06T05:42:15;101025.31;;;17.87;100.00
5413;BME280;2729;50.056;8.678;2022-07-06T05:44:42;101026.44;;;18.02;100.00
5413;BME280;2729;50.056;8.678;2022-07-06T05:47:09;101025.66;;;18.00;100.00
5413;BME280;2729;50.056;8.678;2022-07-06T05:49:54;101027.16;;;18.06;100.00
5413;BME280;2729;50.056;8.678;2022-07-06T05:52:51;101030.94;;;18.00;100.00
5413;BME280;2729;50.056;8.678;2022-07-06T05:55:20;101038.13;;;18.17;100.00
5413;BME280;2729;50.056;8.678;2022-07-06T05:57:46;101034.91;;;18.10;100.00
5413;BME280;2729;50.056;8.678;2022-07-06T06:00:13;101029.16;;;18.21;100.00
5413;BME280;2729;50.056;8.678;2022-07-06T06:02:42;101037.81;;;18.24;100.00
5413;BME280;2729;50.056;8.678;2022-07-06T06:05:11;101041.53;;;18.20;100.00
5413;BME280;2729;50.056;8.678;2022-07-06T06:07:39;101041.63;;;18.38;100.00
5413;BME280;2729;50.056;8.678;2022-07-06T06:10:08;101040.19;;;18.30;100.00
5413;BME280;2729;50.056;8.678;2022-07-06T06:12:34;101042.31;;;18.22;100.00
5413;BME280;2729;50.056;8.678;2022-07-06T06:15:01;101037.72;;;18.46;100.00
5413;BME280;2729;50.056;8.678;2022-07-06T06:17:27;101040.66;;;18.59;100.00
5413;BME280;2729;50.056;8.678;2022-07-06T06:19:53;101049.06;;;18.48;98.24
5413;BME280;2729;50.056;8.678;2022-07-06T06:22:19;101043.00;;;18.46;100.00
5413;BME280;2729;50.056;8.678;2022-07-06T06:24:45;101045.00;;;18.41;97.08
5413;BME280;2729;50.056;8.678;2022-07-06T06:27:11;101036.56;;;18.52;99.54
5413;BME280;2729;50.056;8.678;2022-07-06T06:29:37;101038.56;;;18.67;100.00
5413;BME280;2729;50.056;8.678;2022-07-06T06:32:04;101031.06;;;18.77;97.50
5413;BME280;2729;50.056;8.678;2022-07-06T06:34:31;101034.25;;;18.65;94.43
5413;BME280;2729;50.056;8.678;2022-07-06T06:36:57;101033.41;;;18.83;93.68
5413;BME280;2729;50.056;8.678;2022-07-06T06:39:23;101027.59;;;18.93;92.04
5413;BME280;2729;50.056;8.678;2022-07-06T06:41:49;101036.16;;;19.17;92.79
5413;BME280;2729;50.056;8.678;2022-07-06T06:44:15;101037.56;;;19.24;90.97
5413;BME280;2729;50.056;8.678;2022-07-06T06:46:43;101035.97;;;19.03;89.52
5413;BME280;2729;50.056;8.678;2022-07-06T06:49:09;101034.44;;;19.16;89.98
5413;BME280;2729;50.056;8.678;2022-07-06T06:51:35;101043.63;;;19.45;92.02
5413;BME280;2729;50.056;8.678;2022-07-06T06:54:03;101039.84;;;19.32;86.56
5413;BME280;2729;50.056;8.678;2022-07-06T06:56:29;101043.66;;;19.26;89.08
5413;BME280;2729;50.056;8.678;2022-07-06T06:58:55;101041.69;;;19.13;86.27
5413;BME280;2729;50.056;8.678;2022-07-06T07:01:21;101043.66;;;19.26;85.13
5413;BME280;2729;50.056;8.678;2022-07-06T07:03:47;101047.69;;;19.16;87.54
5413;BME280;2729;50.056;8.678;2022-07-06T07:06:13;101051.09;;;19.18;85.98
5413;BME280;2729;50.056;8.678;2022-07-06T07:08:39;101050.63;;;19.46;84.17
5413;BME280;2729;50.056;8.678;2022-07-06T07:11:04;101050.41;;;19.51;86.20
5413;BME280;2729;50.056;8.678;2022-07-06T07:13:31;101055.75;;;19.32;85.28
5413;BME280;2729;50.056;8.678;2022-07-06T07:15:56;101058.41;;;19.49;88.95
5413;BME280;2729;50.056;8.678;2022-07-06T07:18:23;101053.78;;;19.54;84.02
5413;BME280;2729;50.056;8.678;2022-07-06T07:20:49;101063.53;;;19.54;84.93
5413;BME280;2729;50.056;8.678;2022-07-06T07:23:15;101055.00;;;19.47;85.13
5413;BME280;2729;50.056;8.678;2022-07-06T07:25:40;101053.50;;;19.78;85.38
5413;BME280;2729;50.056;8.678;2022-07-06T07:28:06;101056.84;;;19.99;89.99
5413;BME280;2729;50.056;8.678;2022-07-06T07:30:32;101054.88;;;20.19;83.53
5413;BME280;2729;50.056;8.678;2022-07-06T07:32:58;101058.63;;;19.98;79.21
5413;BME280;2729;50.056;8.678;2022-07-06T07:35:27;101060.13;;;19.50;80.50
5413;BME280;2729;50.056;8.678;2022-07-06T07:37:53;101055.13;;;19.80;82.90
5413;BME280;2729;50.056;8.678;2022-07-06T07:40:19;101050.38;;;20.04;82.21
5413;BME280;2729;50.056;8.678;2022-07-06T07:42:45;101051.66;;;20.30;86.69
5413;BME280;2729;50.056;8.678;2022-07-06T07:45:11;101045.19;;;20.18;81.54
5413;BME280;2729;50.056;8.678;2022-07-06T07:47:38;101045.72;;;20.25;83.30
5413;BME280;2729;50.056;8.678;2022-07-06T07:50:05;101049.94;;;20.29;81.16
5413;BME280;2729;50.056;8.678;2022-07-06T07:52:31;101046.53;;;20.10;80.95
5413;BME280;2729;50.056;8.678;2022-07-06T07:54:57;101054.56;;;20.08;83.79
5413;BME280;2729;50.056;8.678;2022-07-06T07:57:23;101046.53;;;20.10;84.86
5413;BME280;2729;50.056;8.678;2022-07-06T07:59:50;101048.34;;;19.92;80.15
5413;BME280;2729;50.056;8.678;2022-07-06T08:02:16;101050.81;;;20.12;85.37
5413;BME280;2729;50.056;8.678;2022-07-06T08:04:42;101054.97;;;20.01;84.18
5413;BME280;2729;50.056;8.678;2022-07-06T08:07:08;101052.88;;;19.90;83.46
5413;BME280;2729;50.056;8.678;2022-07-06T08:09:34;101059.56;;;19.97;88.16
5413;BME280;2729;50.056;8.678;2022-07-06T08:11:59;101058.25;;;19.88;85.42
5413;BME280;2729;50.056;8.678;2022-07-06T08:14:25;101060.91;;;19.88;83.96
5413;BME280;2729;50.056;8.678;2022-07-06T08:16:52;101063.16;;;19.96;85.41
5413;BME280;2729;50.056;8.678;2022-07-06T08:19:17;101055.81;;;19.84;80.28
5413;BME280;2729;50.056;8.678;2022-07-06T08:21:44;101060.66;;;20.10;83.32
5413;BME280;2729;50.056;8.678;2022-07-06T08:24:10;101066.72;;;20.12;81.43
5413;BME280;2729;50.056;8.678;2022-07-06T08:26:37;101061.03;;;20.03;79.29
5413;BME280;2729;50.056;8.678;2022-07-06T08:29:03;101069.31;;;20.14;81.85
5413;BME280;2729;50.056;8.678;2022-07-06T08:31:29;101061.91;;;20.03;78.36
5413;BME280;2729;50.056;8.678;2022-07-06T08:33:55;101066.41;;;20.18;82.02
5413;BME280;2729;50.056;8.678;2022-07-06T08:36:22;101067.47;;;20.49;79.43
5413;BME280;2729;50.056;8.678;2022-07-06T08:38:49;101061.94;;;20.53;76.87
5413;BME280;2729;50.056;8.678;2022-07-06T08:41:18;101061.44;;;20.78;77.22
5413;BME280;2729;50.056;8.678;2022-07-06T08:43:46;101064.75;;;20.99;72.94
5413;BME280;2729;50.056;8.678;2022-07-06T08:46:13;101062.53;;;20.92;76.39
5413;BME280;2729;50.056;8.678;2022-07-06T08:48:41;101062.56;;;20.74;74.05
5413;BME280;2729;50.056;8.678;2022-07-06T08:51:07;101064.00;;;20.64;75.33
5413;BME280;2729;50.056;8.678;2022-07-06T08:53:33;101071.84;;;20.50;76.16
5413;BME280;2729;50.056;8.678;2022-07-06T08:56:00;101075.06;;;20.22;73.95
5413;BME280;2729;50.056;8.678;2022-07-06T08:58:27;101080.69;;;20.16;72.23
5413;BME280;2729;50.056;8.678;2022-07-06T09:00:57;101064.59;;;20.36;75.03
5413;BME280;2729;50.056;8.678;2022-07-06T09:03:23;101067.72;;;20.44;73.84
5413;BME280;2729;50.056;8.678;2022-07-06T09:05:50;101068.53;;;20.62;73.79
5413;BME280;2729;50.056;8.678;2022-07-06T09:08:19;101063.50;;;20.73;71.20
5413;BME280;2729;50.056;8.678;2022-07-06T09:10:46;101068.00;;;20.38;73.01
5413;BME280;2729;50.056;8.678;2022-07-06T09:13:12;101060.56;;;20.62;76.78
5413;BME280;2729;50.056;8.678;2022-07-06T09:15:38;101060.75;;;20.59;69.65
5413;BME280;2729;50.056;8.678;2022-07-06T09:18:05;101062.78;;;20.54;70.03
5413;BME280;2729;50.056;8.678;2022-07-06T09:20:32;101065.47;;;20.70;69.61
5413;BME280;2729;50.056;8.678;2022-07-06T09:23:03;101065.22;;;20.74;68.64
5413;BME280;2729;50.056;8.678;2022-07-06T09:25:30;101068.66;;;20.76;69.48
5413;BME280;2729;50.056;8.678;2022-07-06T09:27:58;101070.75;;;20.54;68.01
5413;BME280;2729;50.056;8.678;2022-07-06T09:30:25;101069.63;;;20.58;69.35
5413;BME280;2729;50.056;8.678;2022-07-06T09:32:56;101071.31;;;20.43;70.96
5413;BME280;2729;50.056;8.678;2022-07-06T09:35:28;101064.78;;;20.66;64.41
5413;BME280;2729;50.056;8.678;2022-07-06T09:38:12;101063.34;;;20.76;64.58
5413;BME280;2729;50.056;8.678;2022-07-06T09:40:40;101065.34;;;20.89;66.42
5413;BME280;2729;50.056;8.678;2022-07-06T09:43:20;101068.00;;;20.89;65.67
5413;BME280;2729;50.056;8.678;2022-07-06T09:45:52;101072.78;;;20.82;61.38
5413;BME280;2729;50.056;8.678;2022-07-06T09:48:23;101070.25;;;20.63;60.52
5413;BME280;2729;50.056;8.678;2022-07-06T09:50:50;101064.56;;;20.86;59.61
5413;BME280;2729;50.056;8.678;2022-07-06T09:53:20;101058.09;;;21.24;60.88
5413;BME280;2729;50.056;8.678;2022-07-06T09:55:47;101059.19;;;21.35;59.15
5413;BME280;2729;50.056;8.678;2022-07-06T09:58:14;101059.44;;;20.99;58.63
5413;BME280;2729;50.056;8.678;2022-07-06T10:00:41;101069.75;;;21.37;58.86
5413;BME280;2729;50.056;8.678;2022-07-06T10:03:07;101074.53;;;21.14;56.23
5413;BME280;2729;50.056;8.678;2022-07-06T10:05:42;101066.66;;;21.29;55.50
5413;BME280;2729;50.056;8.678;2022-07-06T10:08:09;101070.06;;;21.15;55.51
5413;BME280;2729;50.056;8.678;2022-07-06T10:10:37;101063.72;;;21.17;52.51
5413;BME280;2729;50.056;8.678;2022-07-06T10:13:04;101062.19;;;21.45;51.63
5413;BME280;2729;50.056;8.678;2022-07-06T10:15:32;101061.88;;;21.65;52.19
5413;BME280;2729;50.056;8.678;2022-07-06T10:18:06;101066.94;;;21.70;52.20
5413;BME280;2729;50.056;8.678;2022-07-06T10:20:35;101061.81;;;21.67;51.42
5413;BME280;2729;50.056;8.678;2022-07-06T10:23:05;101062.44;;;21.86;52.67
5413;BME280;2729;50.056;8.678;2022-07-06T10:25:33;101053.69;;;21.84;48.41
5413;BME280;2729;50.056;8.678;2022-07-06T10:27:59;101054.00;;;21.94;50.23
5413;BME280;2729;50.056;8.678;2022-07-06T10:30:27;101049.88;;;22.04;49.18
5413;BME280;2729;50.056;8.678;2022-07-06T10:32:56;101040.25;;;22.01;47.05
5413;BME280;2729;50.056;8.678;2022-07-06T10:35:22;101046.09;;;22.22;46.46
5413;BME280;2729;50.056;8.678;2022-07-06T10:38:05;101046.41;;;22.46;47.10
5413;BME280;2729;50.056;8.678;2022-07-06T10:40:36;101054.75;;;22.54;46.41
5413;BME280;2729;50.056;8.678;2022-07-06T10:43:21;101040.25;;;22.01;42.24
5413;BME280;2729;50.056;8.678;2022-07-06T10:50:41;101032.91;;;22.35;43.62
5413;BME280;2729;50.056;8.678;2022-07-06T10:53:21;101024.91;;;22.49;43.62
5413;BME280;2729;50.056;8.678;2022-07-06T10:55:50;101029.66;;;22.58;42.63
5413;BME280;2729;50.056;8.678;2022-07-06T10:58:37;101033.28;;;22.57;43.95
5413;BME280;2729;50.056;8.678;2022-07-06T11:01:03;101038.22;;;22.63;44.34
5413;BME280;2729;50.056;8.678;2022-07-06T11:13:52;101032.31;;;22.72;44.54
5413;BME280;2729;50.056;8.678;2022-07-06T11:16:20;101033.41;;;23.38;44.97
5413;BME280;2729;50.056;8.678;2022-07-06T11:18:59;101026.50;;;23.62;43.09
5413;BME280;2729;50.056;8.678;2022-07-06T11:21:40;101025.25;;;23.81;41.78
5413;BME280;2729;50.056;8.678;2022-07-06T11:24:10;101016.22;;;24.09;41.73
5413;BME280;2729;50.056;8.678;2022-07-06T11:26:36;101017.72;;;24.38;41.33
5413;BME280;2729;50.056;8.678;2022-07-06T11:29:04;101023.03;;;23.87;42.52
5413;BME280;2729;50.056;8.678;2022-07-06T11:31:37;101016.63;;;23.50;42.22
5413;BME280;2729;50.056;8.678;2022-07-06T11:34:04;101016.44;;;24.05;43.64
5413;BME280;2729;50.056;8.678;2022-07-06T11:36:31;101018.66;;;24.12;43.16
5413;BME280;2729;50.056;8.678;2022-07-06T11:38:57;101020.69;;;23.83;41.95
5413;BME280;2729;50.056;8.678;2022-07-06T11:41:23;101025.38;;;23.25;43.83
5413;BME280;2729;50.056;8.678;2022-07-06T11:43:49;101019.28;;;23.50;44.52
5413;BME280;2729;50.056;8.678;2022-07-06T11:46:33;101019.72;;;23.03;45.60
5413;BME280;2729;50.056;8.678;2022-07-06T11:49:02;101019.28;;;23.50;44.02
5413;BME280;2729;50.056;8.678;2022-07-06T11:51:30;101017.38;;;23.92;42.72
5413;BME280;2729;50.056;8.678;2022-07-06T11:53:59;101009.06;;;23.84;41.92
5413;BME280;2729;50.056;8.678;2022-07-06T11:56:29;101006.41;;;24.47;42.38
5413;BME280;2729;50.056;8.678;2022-07-06T11:58:57;101001.56;;;24.65;41.29
5413;BME280;2729;50.056;8.678;2022-07-06T12:01:24;100996.25;;;24.14;40.79
5413;BME280;2729;50.056;8.678;2022-07-06T12:03:51;100992.41;;;23.93;40.63
5413;BME280;2729;50.056;8.678;2022-07-06T12:06:20;100997.00;;;24.54;41.72
5413;BME280;2729;50.056;8.678;2022-07-06T12:08:49;100989.59;;;24.94;41.38
5413;BME280;2729;50.056;8.678;2022-07-06T12:11:26;100993.41;;;24.30;40.53
5413;BME280;2729;50.056;8.678;2022-07-06T12:13:56;100992.31;;;23.94;41.85
5413;BME280;2729;50.056;8.678;2022-07-06T12:16:31;100981.38;;;24.61;41.11
5413;BME280;2729;50.056;8.678;2022-07-06T12:18:57;100975.59;;;25.04;39.80
5413;BME280;2729;50.056;8.678;2022-07-06T12:21:23;100980.63;;;24.95;40.23
5413;BME280;2729;50.056;8.678;2022-07-06T12:23:50;100986.41;;;25.02;39.52
5413;BME280;2729;50.056;8.678;2022-07-06T12:26:19;100988.41;;;24.75;39.86
5413;BME280;2729;50.056;8.678;2022-07-06T12:28:46;100972.06;;;24.66;38.72
5413;BME280;2729;50.056;8.678;2022-07-06T12:31:31;100963.34;;;25.36;39.43
5413;BME280;2729;50.056;8.678;2022-07-06T12:33:57;100967.81;;;25.59;40.42
5413;BME280;2729;50.056;8.678;2022-07-06T12:36:23;100953.88;;;25.08;38.53
5413;BME280;2729;50.056;8.678;2022-07-06T12:38:49;100965.03;;;25.02;38.63
5413;BME280;2729;50.056;8.678;2022-07-06T12:41:32;100963.16;;;25.50;38.01
5413;BME280;2729;50.056;8.678;2022-07-06T12:44:06;100960.91;;;25.33;37.85
5413;BME280;2729;50.056;8.678;2022-07-06T12:46:35;100978.72;;;25.21;39.25
5413;BME280;2729;50.056;8.678;2022-07-06T12:49:11;100962.03;;;25.42;37.26
5413;BME280;2729;50.056;8.678;2022-07-06T12:54:16;100961.94;;;25.43;36.52
5413;BME280;2729;50.056;8.678;2022-07-06T12:57:12;100960.00;;;25.91;38.06
5413;BME280;2729;50.056;8.678;2022-07-06T12:59:44;100967.16;;;25.80;36.88
5413;BME280;2729;50.056;8.678;2022-07-06T13:02:19;100971.72;;;25.31;35.88
5413;BME280;2729;50.056;8.678;2022-07-06T13:07:25;100969.78;;;24.49;39.02
5413;BME280;2729;50.056;8.678;2022-07-06T13:09:51;100971.47;;;24.87;37.94
5413;BME280;2729;50.056;8.678;2022-07-06T13:12:18;100968.03;;;24.97;37.79
5413;BME280;2729;50.056;8.678;2022-07-06T13:14:44;100967.28;;;24.59;37.02
5413;BME280;2729;50.056;8.678;2022-07-06T13:17:10;100964.75;;;25.18;37.20
5413;BME280;2729;50.056;8.678;2022-07-06T13:19:36;100956.56;;;25.67;38.00
5413;BME280;2729;50.056;8.678;2022-07-06T13:22:02;100966.66;;;25.40;39.26
5413;BME280;2729;50.056;8.678;2022-07-06T13:24:28;100960.44;;;24.67;38.16
5413;BME280;2729;50.056;8.678;2022-07-06T13:26:55;100972.91;;;23.92;41.81
5413;BME280;2729;50.056;8.678;2022-07-06T13:29:21;100973.94;;;24.41;44.19
5413;BME280;2729;50.056;8.678;2022-07-06T13:31:47;100969.38;;;24.79;39.87